Time;durP1;ratioP1;P1;durP2;ratioP2;P2;SDS_P1;SDS_P2;PMS_P1;PMS_P2;Temp;Humidity;BMP_temperature;BMP_pressure;BME280_temperature;BME280_humidity;BME280_pressure;Samples;Min_cycle;Max_cycle;Signal;HPM_P1;HPM_P2
2023/01/25 00:01:22;;;;;;;29.88;17.88;;;;;;;4.14;97.17;99777.25;4174981;28;20652;-87
2023/01/25 00:03:25;;;;;;;27.38;17.60;;;;;;;4.17;96.77;99784.13;4155903;28;20211;-87
2023/01/25 00:05:28;;;;;;;29.85;17.95;;;;;;;4.16;96.17;99779.81;4135507;28;20212;-87
2023/01/25 00:07:33;;;;;;;30.10;18.92;;;;;;;4.15;97.12;99778.09;4157012;28;20206;-87
2023/01/25 00:09:36;;;;;;;28.25;17.98;;;;;;;4.16;96.46;99770.34;4155403;28;20229;-87
2023/01/25 00:11:39;;;;;;;25.77;17.58;;;;;;;4.19;96.74;99766.88;4176073;28;20331;-86
2023/01/25 00:13:42;;;;;;;29.73;18.08;;;;;;;4.23;96.51;99767.63;4155761;28;20233;-86
2023/01/25 00:15:45;;;;;;;24.95;17.02;;;;;;;4.24;96.30;99760.75;4172241;28;20248;-87
2023/01/25 00:17:50;;;;;;;28.10;18.70;;;;;;;4.25;95.85;99760.72;4170460;28;20210;-87
2023/01/25 00:19:53;;;;;;;28.13;17.40;;;;;;;4.29;95.47;99758.94;4139774;28;20207;-86
2023/01/25 00:21:56;;;;;;;27.15;17.58;;;;;;;4.22;95.67;99763.38;4158177;28;20206;-86
2023/01/25 00:24:00;;;;;;;30.90;18.38;;;;;;;4.17;95.46;99760.88;4174767;28;20677;-87
2023/01/25 00:26:04;;;;;;;31.05;19.40;;;;;;;4.19;96.19;99756.53;4156042;28;20199;-86
2023/01/25 00:28:07;;;;;;;32.38;17.10;;;;;;;4.23;96.81;99749.56;4159922;28;20210;-87
2023/01/25 00:30:11;;;;;;;33.38;19.23;;;;;;;4.18;96.07;99750.53;4140535;28;20313;-86
2023/01/25 00:32:48;;;;;;;25.70;18.73;;;;;;;4.13;96.72;99757.47;4152819;28;20489;-86
2023/01/25 00:34:51;;;;;;;31.65;18.55;;;;;;;4.17;97.02;99771.22;4137431;28;20614;-86
2023/01/25 00:36:56;;;;;;;26.60;16.88;;;;;;;4.18;96.12;99773.75;4169966;28;20221;-86
2023/01/25 00:39:01;;;;;;;27.65;17.85;;;;;;;4.18;96.79;99770.31;4174345;28;20200;-87
2023/01/25 00:41:04;;;;;;;29.15;17.38;;;;;;;4.09;95.33;99765.28;4154606;28;20290;-87
2023/01/25 00:43:08;;;;;;;31.90;18.15;;;;;;;4.06;95.66;99755.03;4153599;28;20302;-86
2023/01/25 00:45:12;;;;;;;29.15;17.17;;;;;;;4.06;96.36;99761.06;4173196;28;20629;-86
2023/01/25 00:47:15;;;;;;;29.08;17.77;;;;;;;4.13;97.02;99759.22;4174787;28;20737;-86
2023/01/25 00:49:21;;;;;;;29.60;17.58;;;;;;;4.16;96.52;99754.84;4176201;28;20361;-86
2023/01/25 00:51:25;;;;;;;29.40;18.40;;;;;;;4.24;96.68;99755.59;4137337;28;20961;-87
2023/01/25 00:53:28;;;;;;;31.15;18.55;;;;;;;4.31;96.28;99741.69;4141584;28;20207;-86
2023/01/25 00:55:32;;;;;;;29.33;17.23;;;;;;;4.31;95.85;99747.69;4137827;28;20211;-86
2023/01/25 00:57:35;;;;;;;28.25;17.92;;;;;;;4.29;95.39;99733.13;4142788;28;20204;-86
2023/01/25 00:59:43;;;;;;;27.00;17.17;;;;;;;4.32;96.19;99739.06;4165351;28;20213;-86
2023/01/25 01:01:46;;;;;;;26.52;16.02;;;;;;;4.35;96.28;99733.84;4158581;28;20202;-86
2023/01/25 01:03:51;;;;;;;31.83;19.05;;;;;;;4.40;95.97;99737.19;4134342;28;20262;-85
2023/01/25 01:06:00;;;;;;;27.83;17.27;;;;;;;4.47;95.69;99733.66;4152318;28;20207;-86
2023/01/25 01:08:03;;;;;;;28.00;18.27;;;;;;;4.53;95.97;99743.03;4142741;28;20294;-86
2023/01/25 01:10:07;;;;;;;31.70;17.80;;;;;;;4.54;95.30;99737.84;4157485;28;20211;-86
2023/01/25 01:12:12;;;;;;;24.77;16.30;;;;;;;4.55;95.25;99741.25;4171803;28;20214;-86
2023/01/25 01:14:15;;;;;;;32.22;16.90;;;;;;;4.58;95.05;99742.03;4153052;28;20228;-86
2023/01/25 01:16:18;;;;;;;27.42;16.92;;;;;;;4.62;95.89;99751.44;4142821;28;20219;-86
2023/01/25 01:18:21;;;;;;;28.60;19.00;;;;;;;4.69;95.65;99747.84;4155789;28;20207;-87
2023/01/25 01:20:24;;;;;;;27.92;16.98;;;;;;;4.74;95.04;99752.06;4153497;28;20203;-86
2023/01/25 01:22:30;;;;;;;31.38;18.35;;;;;;;4.74;94.45;99748.63;4140516;28;20222;-86
2023/01/25 01:24:33;;;;;;;28.50;16.77;;;;;;;4.71;94.93;99752.13;4140761;28;20235;-86
2023/01/25 01:26:38;;;;;;;27.73;17.80;;;;;;;4.72;94.43;99748.66;4158714;28;20229;-86
2023/01/25 01:28:42;;;;;;;31.80;18.65;;;;;;;4.67;93.75;99746.19;4158836;28;20265;-86
2023/01/25 01:30:45;;;;;;;28.33;17.50;;;;;;;4.61;94.08;99747.16;4155490;28;20288;-86
2023/01/25 01:32:50;;;;;;;25.27;16.02;;;;;;;4.61;94.35;99744.56;4142078;28;20196;-86
2023/01/25 01:34:53;;;;;;;29.10;16.98;;;;;;;4.71;94.90;99743.53;4158009;28;20210;-87
2023/01/25 01:36:56;;;;;;;27.50;18.02;;;;;;;4.70;93.65;99741.81;4139742;28;20582;-86
2023/01/25 01:38:59;;;;;;;23.83;16.45;;;;;;;4.71;93.71;99739.19;4140936;28;20215;-86
2023/01/25 01:41:03;;;;;;;28.02;16.98;;;;;;;4.70;94.36;99746.97;4167547;28;20206;-86
2023/01/25 01:43:12;;;;;;;24.77;15.65;;;;;;;4.69;94.22;99750.44;4152822;28;20709;-86
2023/01/25 01:45:51;;;;;;;28.58;17.42;;;;;;;4.62;94.37;99743.69;4159349;28;20210;-86
2023/01/25 01:48:00;;;;;;;21.33;14.10;;;;;;;4.61;93.75;99744.56;4162442;28;20549;-86
2023/01/25 01:50:08;;;;;;;23.63;15.95;;;;;;;4.62;94.32;99743.69;4174238;28;20255;-86
2023/01/25 01:52:15;;;;;;;28.35;17.63;;;;;;;4.67;94.46;99747.03;4145422;28;20636;-86
2023/01/25 01:54:20;;;;;;;24.95;14.48;;;;;;;4.65;93.39;99743.66;4144319;28;20288;-86
2023/01/25 01:56:29;;;;;;;24.15;14.73;;;;;;;4.69;93.92;99750.44;4157880;28;20211;-86
2023/01/25 01:58:36;;;;;;;21.58;13.93;;;;;;;4.64;93.28;99739.34;4180177;28;20212;-87
2023/01/25 02:00:40;;;;;;;21.55;13.23;;;;;;;4.59;93.28;99738.59;4146044;28;20287;-87
2023/01/25 02:02:45;;;;;;;22.33;14.43;;;;;;;4.62;93.79;99745.44;4157064;28;20195;-86
2023/01/25 02:04:49;;;;;;;19.75;13.73;;;;;;;4.56;93.72;99745.56;4137624;28;20696;-86
2023/01/25 02:06:56;;;;;;;18.27;11.80;;;;;;;4.50;94.20;99743.91;4142091;28;20200;-86
2023/01/25 02:09:00;;;;;;;19.52;13.10;;;;;;;4.53;93.80;99746.44;4164582;28;20293;-86
2023/01/25 02:11:04;;;;;;;26.77;17.23;;;;;;;4.55;93.86;99743.84;4141205;28;20231;-86
2023/01/25 02:13:07;;;;;;;23.77;13.80;;;;;;;4.55;94.25;99742.09;4159388;28;20745;-86
2023/01/25 02:15:11;;;;;;;24.35;14.52;;;;;;;4.56;93.83;99737.81;4140628;28;20319;-86
2023/01/25 02:17:14;;;;;;;21.52;13.55;;;;;;;4.53;94.28;99732.69;4173472;28;20312;-87
2023/01/25 02:19:27;;;;;;;29.05;16.88;;;;;;;4.50;93.43;99732.75;4155955;28;20226;-87
2023/01/25 02:21:36;;;;;;;18.88;12.98;;;;;;;4.42;93.73;99730.31;4158713;28;20687;-86
2023/01/25 02:23:47;;;;;;;21.45;13.13;;;;;;;4.41;93.45;99723.41;4178214;28;20198;-86
2023/01/25 02:25:51;;;;;;;16.45;12.27;;;;;;;4.47;94.08;99718.16;4156427;28;20751;-86
2023/01/25 02:27:56;;;;;;;20.08;12.27;;;;;;;4.37;94.50;99728.66;4175273;28;20206;-87
2023/01/25 02:30:01;;;;;;;17.52;11.88;;;;;;;4.33;93.40;99721.84;4155647;28;20230;-87
2023/01/25 02:32:05;;;;;;;19.48;12.40;;;;;;;4.38;93.28;99726.06;4158687;28;20234;-86
2023/01/25 02:34:08;;;;;;;23.10;14.65;;;;;;;4.32;93.48;99713.25;4156229;28;20222;-87
2023/01/25 02:36:21;;;;;;;17.63;12.00;;;;;;;4.30;93.29;99717.59;4158832;28;20196;-86
2023/01/25 02:38:24;;;;;;;19.50;12.60;;;;;;;4.28;93.78;99721.09;4160693;28;20222;-87
2023/01/25 02:40:30;;;;;;;18.52;11.93;;;;;;;4.29;94.17;99717.63;4172159;28;21027;-86
2023/01/25 02:42:35;;;;;;;21.45;12.60;;;;;;;4.22;94.71;99710.84;4173001;28;20285;-86
2023/01/25 02:44:42;;;;;;;20.42;12.68;;;;;;;4.23;94.07;99705.66;4152730;28;20215;-86
2023/01/25 02:46:46;;;;;;;19.08;12.75;;;;;;;4.27;94.18;99711.66;4159579;28;20266;-86
2023/01/25 02:48:49;;;;;;;17.30;11.70;;;;;;;4.32;95.01;99712.41;4158808;28;20232;-86
2023/01/25 02:50:52;;;;;;;21.13;11.95;;;;;;;4.29;94.72;99708.16;4176295;28;20226;-86
2023/01/25 02:52:55;;;;;;;19.00;12.43;;;;;;;4.32;95.14;99710.69;4157835;28;20644;-86
2023/01/25 02:54:58;;;;;;;20.20;13.18;;;;;;;4.37;94.93;99708.84;4154954;28;20203;-86
2023/01/25 02:57:02;;;;;;;19.70;12.77;;;;;;;4.39;94.92;99704.53;4142129;28;20203;-86
2023/01/25 02:59:18;;;;;;;18.63;12.57;;;;;;;4.43;93.64;99707.91;4151371;28;20250;-86
2023/01/25 03:01:25;;;;;;;18.55;12.73;;;;;;;4.43;94.29;99701.00;4153430;28;20214;-86
2023/01/25 03:03:29;;;;;;;22.50;13.57;;;;;;;4.26;93.42;99692.72;4156334;28;20265;-86
2023/01/25 03:05:32;;;;;;;18.88;11.30;;;;;;;4.26;94.38;99691.88;4160143;28;20229;-86
2023/01/25 03:07:36;;;;;;;17.63;11.70;;;;;;;4.29;93.62;99697.81;4155002;28;20717;-86
2023/01/25 03:09:39;;;;;;;19.77;11.93;;;;;;;4.25;94.17;99690.16;4155800;28;20210;-86
2023/01/25 03:11:42;;;;;;;18.15;11.57;;;;;;;4.22;93.87;99680.75;4137638;28;20219;-86
2023/01/25 03:13:46;;;;;;;16.45;11.60;;;;;;;4.25;93.35;99680.69;4159178;28;20278;-86
2023/01/25 03:15:51;;;;;;;17.17;10.90;;;;;;;4.31;93.25;99685.72;4158738;28;20291;-86
2023/01/25 03:17:55;;;;;;;19.65;10.63;;;;;;;4.28;94.42;99680.66;4174556;28;20224;-86
2023/01/25 03:19:58;;;;;;;14.68;10.40;;;;;;;4.29;94.11;99677.16;4171761;28;20265;-86
2023/01/25 03:22:01;;;;;;;16.30;10.48;;;;;;;4.26;94.28;99681.53;4169547;28;20332;-86
2023/01/25 03:24:07;;;;;;;17.42;11.50;;;;;;;4.20;93.82;99677.31;4161030;28;20686;-87
2023/01/25 03:26:16;;;;;;;17.50;11.73;;;;;;;4.24;93.49;99673.81;4158935;28;20297;-86
2023/01/25 03:28:39;;;;;;;15.52;10.50;;;;;;;4.23;94.17;99666.09;4138738;28;20214;-86
2023/01/25 03:30:42;;;;;;;16.60;11.02;;;;;;;4.26;94.05;99679.81;4157480;28;20257;-86
2023/01/25 03:32:47;;;;;;;15.98;10.50;;;;;;;4.24;93.02;99673.81;4143728;28;20270;-86
2023/01/25 03:34:54;;;;;;;13.38;9.30;;;;;;;4.18;92.92;99672.22;4149353;28;20214;-86
2023/01/25 03:36:57;;;;;;;13.70;8.90;;;;;;;4.16;93.31;99677.41;4159968;28;20198;-86
2023/01/25 03:39:02;;;;;;;12.23;8.63;;;;;;;4.12;93.34;99664.59;4143295;28;20250;-86
2023/01/25 03:41:06;;;;;;;13.43;9.05;;;;;;;4.12;92.82;99674.91;4140876;28;20737;-87
2023/01/25 03:43:10;;;;;;;15.88;9.73;;;;;;;4.16;92.91;99680.00;4158798;28;20238;-86
2023/01/25 03:45:14;;;;;;;17.00;10.60;;;;;;;4.18;93.23;99667.06;4167384;28;20210;-86
2023/01/25 03:47:17;;;;;;;29.75;17.50;;;;;;;4.19;92.97;99676.50;4153137;28;20234;-86
2023/01/25 03:49:22;;;;;;;24.30;14.13;;;;;;;4.20;93.34;99664.41;4140169;28;20220;-86
2023/01/25 03:51:26;;;;;;;16.25;9.90;;;;;;;4.23;94.09;99666.09;4154948;28;20206;-86
2023/01/25 03:53:31;;;;;;;15.07;8.88;;;;;;;4.16;93.86;99671.41;4158518;28;20698;-86
2023/01/25 03:55:45;;;;;;;14.15;9.25;;;;;;;4.16;93.98;99671.41;4154815;28;20214;-86
2023/01/25 03:57:48;;;;;;;14.23;8.70;;;;;;;4.08;92.62;99666.38;4170227;28;20254;-86
2023/01/25 03:59:52;;;;;;;13.55;8.82;;;;;;;4.06;92.96;99668.16;4141001;28;20710;-86
2023/01/25 04:01:55;;;;;;;13.73;9.35;;;;;;;3.96;92.97;99660.59;4143053;28;20214;-87
2023/01/25 04:03:58;;;;;;;13.73;8.75;;;;;;;3.93;93.42;99661.47;4162322;28;20714;-86
2023/01/25 04:06:03;;;;;;;14.05;9.57;;;;;;;4.00;92.78;99664.78;4157933;28;20210;-86
2023/01/25 04:08:07;;;;;;;13.57;9.18;;;;;;;4.02;94.26;99661.31;4143562;28;20204;-86
2023/01/25 04:10:14;;;;;;;13.90;9.30;;;;;;;3.94;93.79;99657.16;4141673;28;20258;-86
2023/01/25 04:12:20;;;;;;;15.88;10.30;;;;;;;3.99;94.11;99660.53;4167967;28;20658;-86
2023/01/25 04:14:23;;;;;;;13.35;8.50;;;;;;;3.98;93.68;99646.75;4158944;28;20273;-86
2023/01/25 04:16:46;;;;;;;13.60;9.20;;;;;;;4.06;93.50;99655.25;4157689;28;20210;-86
2023/01/25 04:19:10;;;;;;;13.80;9.45;;;;;;;4.07;92.86;99656.91;4169710;28;20218;-86
2023/01/25 04:21:15;;;;;;;12.98;9.13;;;;;;;4.06;94.19;99652.66;4170113;28;20289;-86
2023/01/25 04:23:18;;;;;;;12.30;8.50;;;;;;;4.05;94.13;99644.94;4152586;28;20245;-86
2023/01/25 04:25:21;;;;;;;11.15;7.70;;;;;;;4.00;93.82;99641.56;4138748;28;20823;-86
2023/01/25 04:27:28;;;;;;;10.77;6.93;;;;;;;4.01;93.17;99644.13;4171679;28;20241;-86
2023/01/25 04:29:38;;;;;;;11.40;8.00;;;;;;;3.95;92.43;99638.22;4154236;28;20214;-85
2023/01/25 04:31:47;;;;;;;11.68;7.55;;;;;;;3.94;92.50;99636.53;4151868;28;20324;-87
2023/01/25 04:33:51;;;;;;;11.43;7.10;;;;;;;3.94;92.56;99633.94;4138048;28;20192;-87
2023/01/25 04:35:55;;;;;;;11.30;7.07;;;;;;;3.96;93.56;99640.78;4167586;28;20694;-86
2023/01/25 04:38:00;;;;;;;10.25;7.22;;;;;;;3.91;92.36;99647.75;4141948;28;20846;-87
2023/01/25 04:40:13;;;;;;;11.65;7.70;;;;;;;3.85;92.04;99632.38;4136350;28;20208;-87
2023/01/25 04:42:20;;;;;;;8.40;6.00;;;;;;;3.89;92.23;99633.19;4158369;28;20265;-86
2023/01/25 04:44:27;;;;;;;8.02;6.00;;;;;;;3.87;92.41;99632.38;4149881;28;20659;-86
2023/01/25 04:46:30;;;;;;;7.90;6.18;;;;;;;3.87;92.30;99635.78;4139623;28;20690;-87
2023/01/25 04:48:33;;;;;;;8.32;6.03;;;;;;;3.86;91.37;99638.38;4172984;28;20205;-86
2023/01/25 04:50:40;;;;;;;8.25;6.05;;;;;;;3.88;91.84;99639.25;4156631;28;20203;-86
2023/01/25 04:52:44;;;;;;;8.65;6.55;;;;;;;3.80;92.47;99644.53;4156895;28;20257;-86
2023/01/25 04:54:49;;;;;;;9.23;6.80;;;;;;;3.77;92.64;99644.56;4155978;28;20219;-86
2023/01/25 04:56:52;;;;;;;9.80;6.70;;;;;;;3.80;92.94;99648.81;4154572;28;20261;-86
2023/01/25 04:58:55;;;;;;;11.80;6.80;;;;;;;3.78;93.10;99645.41;4153340;28;20234;-86
2023/01/25 05:01:00;;;;;;;11.50;7.10;;;;;;;3.77;92.86;99636.84;4156517;28;20230;-86
2023/01/25 05:03:04;;;;;;;11.52;8.48;;;;;;;3.82;92.41;99642.75;4174211;28;20213;-86
2023/01/25 05:05:08;;;;;;;10.73;6.40;;;;;;;3.87;93.12;99640.94;4153256;28;20646;-86
2023/01/25 05:07:11;;;;;;;10.15;7.03;;;;;;;3.87;92.98;99643.53;4151211;28;20209;-86
2023/01/25 05:09:16;;;;;;;11.95;8.05;;;;;;;3.92;92.95;99648.59;4151602;28;20203;-86
2023/01/25 05:11:22;;;;;;;9.75;6.80;;;;;;;3.95;92.86;99633.91;4156212;28;20284;-86
2023/01/25 05:13:30;;;;;;;11.13;7.28;;;;;;;4.03;91.91;99638.94;4156897;28;20282;-86
2023/01/25 05:15:43;;;;;;;9.05;6.30;;;;;;;3.97;91.56;99637.34;4140638;28;20701;-86
2023/01/25 05:17:46;;;;;;;10.43;6.93;;;;;;;3.97;90.96;99633.88;4144637;28;20282;-86
2023/01/25 05:19:49;;;;;;;9.80;6.45;;;;;;;3.87;92.42;99629.78;4160165;28;20325;-86
2023/01/25 05:21:58;;;;;;;7.97;5.85;;;;;;;3.87;92.11;99624.63;4145121;28;20212;-86
2023/01/25 05:24:16;;;;;;;11.00;7.25;;;;;;;3.85;92.53;99621.22;4162336;28;20216;-86
2023/01/25 05:28:43;;;;;;;9.65;6.70;;;;;;;3.92;92.27;99615.06;4155584;28;20722;-86
2023/01/25 05:31:15;;;;;;;8.10;6.10;;;;;;;3.94;92.55;99621.03;4151217;28;20462;-86
2023/01/25 05:33:19;;;;;;;9.60;6.97;;;;;;;3.93;92.08;99617.63;4158587;28;20206;-86
2023/01/25 05:35:22;;;;;;;11.88;6.65;;;;;;;3.88;92.49;99616.84;4155692;28;20738;-86
2023/01/25 05:37:28;;;;;;;9.88;6.95;;;;;;;3.92;92.30;99617.66;4147896;28;20671;-85
2023/01/25 05:39:37;;;;;;;10.10;7.07;;;;;;;3.91;92.44;99621.97;4159424;28;20586;-86
2023/01/25 05:41:41;;;;;;;9.68;6.53;;;;;;;3.95;92.77;99625.34;4145711;28;20677;-86
2023/01/25 05:43:44;;;;;;;11.57;6.85;;;;;;;3.97;92.25;99624.44;4155609;28;20489;-86
2023/01/25 05:45:52;;;;;;;11.45;6.95;;;;;;;3.97;92.29;99615.81;4158363;28;20238;-86
2023/01/25 05:47:56;;;;;;;9.45;6.43;;;;;;;3.95;91.53;99615.00;4168283;28;20573;-86
2023/01/25 05:49:59;;;;;;;9.65;7.00;;;;;;;3.97;92.61;99619.28;4174488;28;20692;-86
2023/01/25 05:52:16;;;;;;;9.52;6.57;;;;;;;3.97;92.44;99628.72;4157627;28;20213;-86
2023/01/25 05:54:19;;;;;;;10.38;7.32;;;;;;;3.98;92.10;99613.22;4170992;28;20214;-86
2023/01/25 05:56:31;;;;;;;14.38;8.95;;;;;;;3.96;92.15;99612.41;4158425;28;20258;-86
2023/01/25 05:58:36;;;;;;;9.95;7.28;;;;;;;3.97;91.62;99615.81;4173741;28;21023;-86
2023/01/25 06:00:39;;;;;;;9.95;7.13;;;;;;;4.00;92.41;99606.31;4157993;28;20722;-85
2023/01/25 06:02:42;;;;;;;10.00;7.10;;;;;;;4.00;92.04;99608.91;4138774;28;20196;-86
2023/01/25 06:04:50;;;;;;;11.40;7.65;;;;;;;3.96;91.65;99614.97;4152075;28;20206;-86
2023/01/25 06:06:53;;;;;;;8.85;6.65;;;;;;;4.01;91.59;99612.31;4158460;28;20199;-86
2023/01/25 06:08:57;;;;;;;10.10;7.18;;;;;;;4.00;91.79;99613.19;4161602;28;20203;-86
2023/01/25 06:11:06;;;;;;;12.48;7.40;;;;;;;4.02;91.31;99611.44;4149997;28;20290;-85
2023/01/25 06:13:10;;;;;;;10.73;7.30;;;;;;;4.02;92.41;99603.72;4153669;28;20838;-86
2023/01/25 06:15:14;;;;;;;8.88;6.20;;;;;;;3.96;90.44;99598.66;4156328;28;20206;-86
2023/01/25 06:17:17;;;;;;;10.40;7.35;;;;;;;3.92;90.74;99599.59;4176515;28;20241;-86
2023/01/25 06:19:34;;;;;;;9.02;6.43;;;;;;;3.93;91.15;99590.97;4144620;28;20695;-86
2023/01/25 06:21:56;;;;;;;9.60;6.85;;;;;;;3.93;91.65;99588.41;4159975;28;20313;-86
2023/01/25 06:23:59;;;;;;;11.32;7.20;;;;;;;3.94;91.48;99605.56;4175724;28;20198;-86
2023/01/25 06:26:05;;;;;;;14.30;11.50;;;;;;;3.93;91.15;99604.72;4158946;28;20557;-86
2023/01/25 06:28:09;;;;;;;10.73;8.13;;;;;;;3.87;90.55;99598.81;4153267;28;20205;-86
2023/01/25 06:30:14;;;;;;;10.40;7.55;;;;;;;3.84;91.40;99604.03;4157430;28;20227;-85
2023/01/25 06:32:17;;;;;;;10.10;7.20;;;;;;;3.81;91.85;99604.09;4172835;28;20666;-86
2023/01/25 06:34:20;;;;;;;15.07;10.90;;;;;;;3.78;92.27;99593.81;4156779;28;20218;-86
2023/01/25 06:36:23;;;;;;;10.88;7.47;;;;;;;3.78;92.12;99599.81;4156860;28;20222;-86
2023/01/25 06:38:26;;;;;;;10.50;7.15;;;;;;;3.72;92.12;99599.09;4136836;28;20208;-86
2023/01/25 06:40:29;;;;;;;9.32;6.70;;;;;;;3.59;92.02;99602.75;4170983;28;20758;-86
2023/01/25 06:42:32;;;;;;;11.55;8.27;;;;;;;3.59;92.22;99596.75;4144014;28;20718;-86
2023/01/25 06:44:35;;;;;;;11.50;7.70;;;;;;;3.64;92.66;99590.66;4176304;28;20237;-85
2023/01/25 06:46:39;;;;;;;12.52;8.48;;;;;;;3.63;92.53;99591.50;4157901;28;20221;-86
2023/01/25 06:48:42;;;;;;;10.23;7.53;;;;;;;3.63;92.22;99583.78;4155213;28;20664;-86
2023/01/25 06:50:45;;;;;;;13.95;8.38;;;;;;;3.68;93.15;99587.13;4173228;28;20908;-86
2023/01/25 06:52:52;;;;;;;9.40;6.65;;;;;;;3.67;92.29;99588.00;4171489;28;20213;-86
2023/01/25 06:54:55;;;;;;;11.45;7.15;;;;;;;3.78;91.59;99588.66;4159712;28;20205;-85
2023/01/25 06:56:58;;;;;;;13.25;8.75;;;;;;;3.75;92.84;99584.41;4174823;28;20214;-88
2023/01/25 06:59:01;;;;;;;13.32;8.60;;;;;;;3.83;92.13;99582.56;4156138;28;20195;-85
2023/01/25 07:01:05;;;;;;;10.50;7.28;;;;;;;3.85;92.42;99587.69;4174554;28;20661;-85
2023/01/25 07:03:10;;;;;;;10.80;7.75;;;;;;;3.92;92.19;99581.53;4159595;28;20360;-85
2023/01/25 07:05:13;;;;;;;11.07;7.60;;;;;;;3.90;91.44;99583.28;4152856;28;20207;-85
2023/01/25 07:07:16;;;;;;;11.90;7.43;;;;;;;3.91;91.51;99583.25;4159455;28;20215;-86
2023/01/25 07:09:22;;;;;;;10.45;7.90;;;;;;;3.89;91.93;99579.00;4174344;28;20209;-86
2023/01/25 07:11:26;;;;;;;11.82;7.93;;;;;;;3.88;91.83;99585.06;4166918;28;20769;-86
2023/01/25 07:13:31;;;;;;;13.02;8.27;;;;;;;3.93;92.22;99589.22;4156633;28;20498;-85
2023/01/25 07:15:34;;;;;;;12.68;7.97;;;;;;;3.89;91.39;99586.75;4158120;28;20295;-86
2023/01/25 07:17:37;;;;;;;15.43;9.15;;;;;;;3.89;92.33;99587.59;4158391;28;20233;-86
2023/01/25 07:19:42;;;;;;;13.27;8.27;;;;;;;3.90;92.05;99588.44;4171375;28;20316;-85
2023/01/25 07:21:45;;;;;;;11.80;7.72;;;;;;;3.93;92.49;99585.81;4157083;28;20297;-85
2023/01/25 07:23:48;;;;;;;11.43;7.63;;;;;;;3.93;91.77;99575.50;4140012;28;20302;-86
2023/01/25 07:25:52;;;;;;;11.68;7.78;;;;;;;3.93;91.38;99568.59;4176255;28;20202;-86
2023/01/25 07:27:54;;;;;;;12.90;8.45;;;;;;;3.99;92.10;99562.47;4152636;28;20213;-86
2023/01/25 07:29:58;;;;;;;13.82;8.90;;;;;;;3.98;90.86;99565.94;4136840;28;20202;-86
2023/01/25 07:32:02;;;;;;;11.13;7.95;;;;;;;4.02;90.76;99560.69;4155935;28;20659;-86
2023/01/25 07:34:06;;;;;;;11.45;7.90;;;;;;;4.09;91.22;99569.16;4178620;28;20236;-86
2023/01/25 07:36:11;;;;;;;11.32;7.97;;;;;;;4.10;91.73;99563.13;4174701;28;20217;-86
2023/01/25 07:38:14;;;;;;;10.40;6.93;;;;;;;4.11;90.48;99578.56;4156039;28;20305;-86
2023/01/25 07:40:18;;;;;;;11.80;7.70;;;;;;;4.13;90.52;99570.81;4156468;28;20222;-86
2023/01/25 07:42:21;;;;;;;14.63;8.48;;;;;;;4.21;91.05;99577.53;4151395;28;20269;-87
2023/01/25 07:44:41;;;;;;;12.18;8.23;;;;;;;4.23;90.67;99571.44;4133351;28;20571;-87
2023/01/25 07:46:47;;;;;;;12.23;8.75;;;;;;;4.26;90.01;99566.22;4134271;28;20763;-86
2023/01/25 07:48:52;;;;;;;14.02;7.93;;;;;;;4.20;89.27;99573.25;4160941;28;20202;-86
2023/01/25 07:51:11;;;;;;;12.35;8.27;;;;;;;4.16;89.47;99573.31;4155173;28;20233;-86
2023/01/25 07:53:16;;;;;;;11.55;7.30;;;;;;;4.17;90.01;99569.88;4154354;28;20214;-86
2023/01/25 07:55:19;;;;;;;13.70;9.35;;;;;;;4.23;90.16;99573.19;4159376;28;20207;-86
2023/01/25 07:57:22;;;;;;;12.85;8.10;;;;;;;4.24;89.96;99575.72;4161614;28;20744;-86
2023/01/25 07:59:25;;;;;;;13.50;8.45;;;;;;;4.29;89.77;99575.63;4150168;28;20206;-85
2023/01/25 08:01:30;;;;;;;12.98;8.48;;;;;;;4.31;90.00;99572.13;4153599;28;21820;-86
2023/01/25 08:03:33;;;;;;;12.60;8.23;;;;;;;4.33;89.53;99579.84;4169215;28;20190;-86
2023/01/25 08:05:37;;;;;;;14.00;8.63;;;;;;;4.31;89.98;99576.44;4172361;28;20198;-87
2023/01/25 08:07:42;;;;;;;13.95;8.18;;;;;;;4.29;89.17;99576.47;4166272;28;20212;-87
2023/01/25 08:09:46;;;;;;;13.48;8.25;;;;;;;4.24;89.39;99565.41;4132015;28;20718;-85
2023/01/25 08:11:49;;;;;;;14.73;10.02;;;;;;;4.29;89.65;99578.22;4165699;28;20459;-85
2023/01/25 08:13:55;;;;;;;15.52;9.75;;;;;;;4.20;89.38;99577.56;4139995;28;20306;-85
2023/01/25 08:15:58;;;;;;;19.30;15.75;;;;;;;4.18;89.93;99579.28;4155993;28;20673;-85
2023/01/25 08:18:01;;;;;;;14.85;9.32;;;;;;;4.15;90.24;99579.34;4132408;28;20212;-85
2023/01/25 08:20:06;;;;;;;13.30;8.30;;;;;;;4.19;90.41;99576.69;4149008;28;20211;-88
2023/01/25 08:22:09;;;;;;;14.35;9.13;;;;;;;4.11;90.19;99583.75;4164593;28;20229;-86
2023/01/25 08:24:12;;;;;;;13.90;9.05;;;;;;;4.13;90.24;99578.53;4167873;28;20206;-86
2023/01/25 08:26:19;;;;;;;17.40;9.15;;;;;;;4.08;89.20;99580.38;4169615;28;20210;-86
2023/01/25 08:28:23;;;;;;;13.27;8.45;;;;;;;4.03;90.86;99570.13;4160422;28;20210;-86
2023/01/25 08:30:26;;;;;;;13.90;9.73;;;;;;;4.03;90.32;99569.25;4157023;28;20271;-86
2023/01/25 08:32:28;;;;;;;13.52;8.15;;;;;;;4.06;90.91;99569.22;4159945;28;20212;-86
2023/01/25 08:34:32;;;;;;;15.63;9.15;;;;;;;4.02;90.34;99570.16;4150414;28;20597;-85
2023/01/25 08:36:35;;;;;;;16.08;10.15;;;;;;;4.03;91.22;99566.69;4173212;28;20617;-86
2023/01/25 08:38:38;;;;;;;16.58;9.95;;;;;;;4.02;91.17;99558.09;4143117;28;20415;-86
2023/01/25 08:40:41;;;;;;;16.42;9.85;;;;;;;4.04;90.27;99564.06;4144228;28;20214;-86
2023/01/25 08:42:45;;;;;;;17.13;10.57;;;;;;;4.08;90.15;99562.31;4167822;28;20583;-85
2023/01/25 08:44:48;;;;;;;21.92;14.35;;;;;;;4.14;90.28;99557.03;4143071;28;20802;-85
2023/01/25 08:46:52;;;;;;;14.23;9.57;;;;;;;4.20;90.03;99561.16;4172565;28;20719;-85
2023/01/25 08:48:56;;;;;;;16.73;10.48;;;;;;;4.14;90.64;99555.28;4167698;28;20595;-85
2023/01/25 08:50:59;;;;;;;15.60;10.13;;;;;;;4.16;90.50;99550.94;4168959;28;20288;-86
2023/01/25 08:53:02;;;;;;;18.13;10.70;;;;;;;4.20;89.19;99549.16;4167742;28;20297;-86
2023/01/25 08:55:06;;;;;;;16.55;10.18;;;;;;;4.11;89.88;99544.19;4171273;28;20689;-86
2023/01/25 08:57:09;;;;;;;16.63;9.93;;;;;;;4.07;89.97;99543.38;4139661;28;20227;-86
2023/01/25 08:59:13;;;;;;;16.13;9.30;;;;;;;4.05;89.30;99546.88;4151290;28;20203;-86
2023/01/25 09:01:18;;;;;;;17.58;10.05;;;;;;;4.03;90.34;99544.34;4169686;28;20593;-86
2023/01/25 09:03:20;;;;;;;16.30;10.30;;;;;;;4.01;90.84;99537.50;4157436;28;20218;-86
2023/01/25 09:05:24;;;;;;;14.68;9.60;;;;;;;3.94;90.87;99541.94;4170524;28;20565;-86
2023/01/25 09:07:26;;;;;;;14.52;9.52;;;;;;;3.97;90.71;99539.28;4139870;28;20218;-86
2023/01/25 09:09:30;;;;;;;12.45;8.77;;;;;;;3.98;90.55;99537.53;4156249;28;20206;-86
2023/01/25 09:11:35;;;;;;;20.42;11.00;;;;;;;3.99;90.65;99539.25;4156046;28;20777;-86
2023/01/25 09:13:42;;;;;;;23.05;14.80;;;;;;;3.93;90.46;99541.94;4158487;28;20724;-86
2023/01/25 09:15:46;;;;;;;26.63;13.15;;;;;;;3.92;90.89;99535.91;4154083;28;20609;-86
2023/01/25 09:17:50;;;;;;;14.93;9.52;;;;;;;3.86;90.10;99540.34;4157139;28;20214;-86
2023/01/25 09:19:53;;;;;;;21.08;12.60;;;;;;;3.80;91.50;99541.34;4155247;28;20334;-86
2023/01/25 09:21:57;;;;;;;25.83;14.55;;;;;;;3.83;91.86;99538.69;4158916;28;20226;-86
2023/01/25 09:24:00;;;;;;;16.77;10.50;;;;;;;3.75;90.41;99529.41;4141826;28;20310;-86
2023/01/25 09:26:10;;;;;;;21.70;11.82;;;;;;;3.74;91.11;99523.41;4149407;28;20207;-86
2023/01/25 09:28:13;;;;;;;37.42;20.80;;;;;;;3.74;91.61;99525.97;4169940;28;20209;-86
2023/01/25 09:30:17;;;;;;;23.38;13.98;;;;;;;3.73;91.52;99520.84;4165767;28;20206;-85
2023/01/25 09:32:27;;;;;;;24.38;15.25;;;;;;;3.82;91.66;99523.25;4154471;28;20604;-86
2023/01/25 09:34:30;;;;;;;25.27;14.50;;;;;;;3.90;91.99;99521.38;4159682;28;20211;-86
2023/01/25 09:36:33;;;;;;;17.92;11.18;;;;;;;3.83;91.24;99527.50;4169734;28;20241;-85
2023/01/25 09:38:36;;;;;;;24.33;14.93;;;;;;;3.85;91.50;99523.19;4140042;28;20203;-86
2023/01/25 09:40:41;;;;;;;15.75;10.27;;;;;;;3.88;91.83;99523.13;4154758;28;20218;-86
2023/01/25 09:42:52;;;;;;;26.17;13.73;;;;;;;3.94;91.07;99521.28;4140260;28;20739;-85
2023/01/25 09:45:23;;;;;;;31.67;18.17;;;;;;;4.00;90.52;99516.00;4170911;28;20294;-86
2023/01/25 09:47:30;;;;;;;17.30;10.75;;;;;;;3.94;90.51;99513.53;4161806;28;20593;-85
2023/01/25 09:49:58;;;;;;;24.25;19.33;;;;;;;4.03;90.15;99528.84;4143325;28;20203;-85